Latest Weather Observations for Blackall

IDQ60801

Issued at 9:02 am EST Tuesday 7 December 2021 (issued every 10 minutes, with the page automatically refreshed every 10 minutes)

About weather observations | Map of weather stations | Latest weather observations for QLD | Other Formats
Station Details ID: 036034 Name: BLACKALL AIRPORT Lat: -24.43 Lon: 145.43 Height: 281.3 m
Data from the previous 72 hours. | See also: Recent months at Blackall
Date/Time
EST
Temp
°C
App
Temp
°C
Dew
Point
°C
Rel
Hum
%
Delta-T
°C
Wind Press
QNH
hPa
Press
MSL
hPa
Rain since
9am
mm
Dir  Spd
km/h
Gust
km/h
Spd
kts
Gust
kts
07/09:00am 26.7 26.4 19.1 63 4.9 NE 19 28 10 15 1013.6 1011.6 0.0
07/08:30am 25.8 25.1 18.7 65 4.6 NE 20 28 11 15 1013.6 1011.6 0.0
07/08:00am 25.4 25.2 18.6 66 4.4 NE 17 28 9 15 1013.7 1011.7 0.0
07/07:30am 24.7 24.4 18.2 67 4.1 NE 17 24 9 13 1013.7 1011.7 0.0
07/07:00am 23.8 23.1 18.2 71 3.6 NE 19 26 10 14 1013.3 1011.3 0.0
07/06:30am 23.0 23.0 18.1 74 3.1 NE 15 24 8 13 1012.9 1010.9 0.0
07/06:00am 21.7 22.3 17.7 78 2.5 ENE 11 13 6 7 1012.5 1010.5 0.0
07/05:30am 20.9 21.9 17.7 82 2.0 ENE 9 13 5 7 1012.4 1010.4 0.0
07/05:00am 21.0 22.0 17.8 82 2.0 ENE 9 11 5 6 1012.3 1010.3 0.0
07/04:30am 21.2 22.1 17.6 80 2.2 ENE 9 11 5 6 1012.1 1010.1 0.0
07/04:00am 21.8 22.7 17.6 77 2.6 ENE 9 13 5 7 1012.0 1010.0 0.0
07/03:30am 22.0 22.3 17.8 77 2.6 ENE 13 17 7 9 1011.8 1009.8 0.0
07/03:00am 21.9 22.1 17.7 77 2.6 ENE 13 17 7 9 1011.9 1009.9 0.0
07/02:30am 21.7 21.9 17.7 78 2.5 E 13 17 7 9 1011.6 1009.6 0.0
07/02:00am 22.0 21.7 17.4 75 2.9 E 15 20 8 11 1011.4 1009.4 0.0
07/01:30am 22.4 21.3 17.3 73 3.2 ESE 19 26 10 14 1011.5 1009.5 0.0
07/01:00am 22.5 21.3 17.0 71 3.4 E 19 26 10 14 1011.6 1009.6 0.0
07/12:30am 22.5 21.0 16.8 70 3.5 E 20 28 11 15 1011.7 1009.7 0.0
07/12:00am 22.4 21.7 16.4 69 3.7 ESE 15 19 8 10 1012.1 1010.1 0.0
 
Date/Time
EST
Temp
°C
App
Temp
°C
Dew
Point
°C
Rel
Hum
%
Delta-T
°C
Wind Press
QNH
hPa
Press
MSL
hPa
Rain since
9am
mm
Dir  Spd
km/h
Gust
km/h
Spd
kts
Gust
kts
06/11:30pm 22.8 22.5 16.4 67 3.9 ESE 13 19 7 10 1012.8 1010.8 0.0
06/11:00pm 23.3 21.5 16.1 64 4.4 E 20 30 11 16 1012.6 1010.6 0.0
06/10:30pm 24.0 21.6 16.3 62 4.8 ESE 24 35 13 19 1012.9 1010.9 0.0
06/10:00pm 24.1 22.3 16.9 64 4.5 SE 22 37 12 20 1012.9 1010.9 0.0
06/09:30pm 24.7 23.5 18.4 68 4.0 SSE 22 39 12 21 1012.4 1010.4 0.0
06/09:00pm 25.6 26.5 19.3 68 4.1 ENE 13 19 7 10 1011.6 1009.6 0.0
06/08:30pm 25.6 26.6 19.5 69 4.0 ENE 13 19 7 10 1011.1 1009.0 0.0
06/08:00pm 25.2 26.6 19.6 71 3.7 E 11 13 6 7 1010.9 1008.8 0.0
06/07:30pm 25.2 26.9 19.3 70 3.8 E 9 11 5 6 1010.8 1008.7 0.0
06/07:00pm 25.7 27.4 19.3 67 4.2 E 9 11 5 6 1010.6 1008.5 0.0
06/06:30pm 26.4 28.6 19.3 65 4.6 NE 6 7 3 4 1010.6 1008.5 0.0
06/06:00pm 26.8 29.0 19.2 63 5.0 NNE 6 9 3 5 1010.5 1008.4 0.0
06/05:30pm 27.3 29.2 18.6 59 5.6 NNE 6 9 3 5 1010.0 1008.0 0.0
06/05:00pm 27.6 29.3 18.0 55 6.2 NNW 6 9 3 5 1009.9 1007.9 0.0
06/04:30pm 27.7 29.2 18.1 56 6.2 WSW 7 9 4 5 1010.1 1008.1 0.0
06/04:00pm 27.7 28.0 17.8 54 6.3 W 13 17 7 9 1010.6 1008.5 0.0
06/03:30pm 28.3 29.4 18.1 54 6.6 WNW 9 15 5 8 1010.9 1008.8 0.0
06/03:00pm 28.3 29.4 18.1 54 6.6 NW 9 13 5 7 1011.1 1009.0 0.0
06/02:30pm 28.0 28.4 18.1 55 6.4 NW 13 20 7 11 1011.2 1009.1 0.0
06/02:00pm 27.8 28.4 18.5 57 6.0 NW 13 19 7 10 1011.1 1009.0 0.0
06/01:30pm 27.2 27.1 17.9 56 5.9 NW 15 20 8 11 1011.4 1009.4 0.0
06/01:00pm 27.1 27.4 17.8 56 5.9 NW 13 20 7 11 1011.7 1009.7 0.0
06/12:30pm 26.5 26.6 18.4 61 5.2 NW 15 20 8 11 1012.3 1010.3 0.0
06/12:00pm 27.3 25.5 17.8 56 6.1 N 24 32 13 17 1012.4 1010.4 0.0
06/11:30am 27.2 26.2 17.9 56 5.9 N 20 28 11 15 1012.9 1010.9 0.0
06/11:00am 26.9 25.9 17.9 57 5.8 N 20 26 11 14 1013.2 1011.2 0.0
06/10:30am 26.8 25.3 17.8 57 5.7 NNE 22 30 12 16 1013.2 1011.2 0.0
06/10:00am 26.8 24.9 17.6 57 5.9 NNE 24 33 13 18 1013.1 1011.1 0.0
06/09:30am 26.2 24.7 17.8 60 5.3 NNE 22 32 12 17 1013.5 1011.5 0.0
06/09:00am 25.5 23.5 17.4 61 5.1 NNE 24 33 13 18 1013.2 1011.2 0.0
06/08:30am 25.4 22.9 17.1 60 5.2 NNE 26 35 14 19 1013.0 1011.0 0.0
06/08:00am 25.0 23.0 16.4 59 5.3 NNE 22 33 12 18 1012.8 1010.8 0.0
06/07:30am 25.1 22.3 16.3 58 5.5 NNE 26 41 14 22 1012.7 1010.7 0.0
06/07:00am 24.8 22.9 15.7 57 5.6 NE 20 32 11 17 1012.2 1010.2 0.0
06/06:30am 24.1 22.3 15.6 59 5.2 NE 19 24 10 13 1011.5 1009.5 0.0
06/06:00am 24.1 22.2 15.3 58 5.4 NE 19 26 10 14 1011.0 1008.9 0.0
06/05:30am 24.3 22.4 15.2 57 5.5 NNE 19 26 10 14 1011.0 1008.9 0.0
06/05:00am 24.7 22.9 15.6 57 5.6 NNE 19 24 10 13 1010.6 1008.5 0.0
06/04:30am 24.5 23.5 16.5 61 5.0 NNE 17 24 9 13 1009.9 1007.9 0.0
06/04:00am 23.7 22.4 14.9 57 5.3 NE 15 20 8 11 1009.5 1007.5 0.0
06/03:30am 23.3 21.2 13.5 54 5.8 ENE 17 24 9 13 1009.2 1007.2 0.0
06/03:00am 21.5 22.3 14.9 66 4.0 ENE 4 6 2 3 1008.9 1006.9 0.0
06/02:30am 22.0 22.9 12.8 56 5.3 CALM 0 0 0 0 1009.0 1007.0 0.0
06/02:00am 23.4 21.9 11.8 48 6.6 SSE 11 13 6 7 1009.0 1007.0 0.0
06/01:30am 23.8 23.0 11.8 47 6.9 SE 7 9 4 5 1009.7 1007.7 0.0
06/01:00am 24.5 22.8 11.1 43 7.6 E 11 17 6 9 1010.1 1008.1 0.0
06/12:30am 25.0 23.0 11.6 43 7.7 NE 13 19 7 10 1010.2 1008.2 0.0
06/12:00am 26.0 23.3 10.2 37 8.9 ESE 15 20 8 11 1010.1 1008.1 0.0
 
Date/Time
EST
Temp
°C
App
Temp
°C
Dew
Point
°C
Rel
Hum
%
Delta-T
°C
Wind Press
QNH
hPa
Press
MSL
hPa
Rain since
9am
mm
Dir  Spd
km/h
Gust
km/h
Spd
kts
Gust
kts
05/11:30pm 26.2 23.2 10.8 38 8.8 SE 17 22 9 12 1010.2 1008.2 0.0
05/11:00pm 25.4 23.3 12.3 44 7.6 ESE 15 17 8 9 1010.8 1008.7 0.0
05/10:30pm 25.8 24.8 12.3 43 7.9 ESE 9 13 5 7 1010.8 1008.7 0.0
05/10:00pm 26.7 24.6 11.2 38 8.9 ESE 13 15 7 8 1010.5 1008.4 0.0
05/09:30pm 26.6 24.9 12.6 41 8.2 ESE 13 15 7 8 1010.2 1008.2 0.0
05/09:00pm 26.6 25.9 13.3 43 7.9 ESE 9 11 5 6 1010.1 1008.1 0.0
05/08:30pm 28.1 26.6 12.0 36 9.4 SE 11 15 6 8 1009.7 1007.7 0.0
05/08:00pm 29.1 27.5 11.6 33 10.2 SSE 11 15 6 8 1009.5 1007.5 0.0
05/07:30pm 29.5 28.3 11.5 32 10.5 SSE 9 13 5 7 1009.3 1007.3 0.0
05/07:00pm 31.1 29.7 11.0 29 11.8 S 9 11 5 6 1009.0 1007.0 0.0
05/06:30pm 32.7 30.9 10.7 26 12.9 S 11 17 6 9 1008.7 1006.7 0.0
05/06:00pm 33.8 31.1 9.1 22 14.2 SSW 13 17 7 9 1008.4 1006.4 0.0
05/05:30pm 34.4 31.5 9.6 22 14.4 S 15 24 8 13 1008.3 1006.3 0.0
05/05:00pm 34.7 30.7 8.4 20 15.0 S 19 28 10 15 1008.2 1006.2 0.0
05/04:30pm 35.0 32.6 10.1 22 14.6 S 13 22 7 12 1008.2 1006.2 0.0
05/04:00pm 35.1 33.7 9.5 21 14.9 S 7 19 4 10 1008.4 1006.4 0.0
05/03:30pm 35.5 33.6 10.5 22 14.8 SSW 11 17 6 9 1008.6 1006.6 0.0
05/03:00pm 35.3 33.4 8.9 20 15.2 SSE 9 20 5 11 1008.7 1006.7 0.0
05/02:30pm 35.2 33.0 12.2 25 13.9 SSE 15 20 8 11 1009.0 1007.0 0.0
05/02:00pm 35.6 34.7 11.3 23 14.5 S 7 17 4 9 1009.4 1007.4 0.0
05/01:30pm 34.9 33.1 9.3 21 14.8 S 9 15 5 8 1009.8 1007.8 0.0
05/01:00pm 35.1 33.3 10.9 23 14.4 E 11 19 6 10 1010.2 1008.2 0.0
05/12:30pm 34.6 33.0 11.7 25 13.7 SSE 11 19 6 10 1010.7 1008.6 0.0
05/12:00pm 34.3 32.8 13.2 28 12.9 ESE 13 19 7 10 1011.0 1008.9 0.0
05/11:30am 33.6 31.9 12.6 28 12.7 ESE 13 22 7 12 1011.5 1009.5 0.0
05/11:00am 32.9 31.2 13.5 30 11.9 ESE 15 24 8 13 1011.9 1009.9 0.0
05/10:30am 32.5 30.8 13.7 32 11.5 ESE 15 26 8 14 1012.2 1010.2 0.0
05/10:00am 31.9 29.5 12.7 31 11.6 ESE 17 24 9 13 1012.5 1010.5 0.0
05/09:30am 31.2 28.3 11.1 29 11.8 ESE 17 24 9 13 1012.7 1010.7 0.0
05/09:00am 30.9 27.7 11.3 30 11.5 SE 19 26 10 14 1012.9 1010.9 0.0
05/08:30am 30.1 27.0 11.6 32 10.9 SE 19 28 10 15 1012.6 1010.6 0.0
05/08:00am 29.1 26.0 11.6 33 10.2 SE 19 26 10 14 1012.5 1010.5 0.0
05/07:30am 27.1 25.5 12.7 41 8.5 ESE 13 20 7 11 1012.3 1010.3 0.0
05/07:00am 25.2 23.7 13.1 47 7.1 SE 13 19 7 10 1012.3 1010.3 0.0
05/06:30am 23.6 22.0 12.9 51 6.2 SSE 13 19 7 10 1012.3 1010.3 0.0
05/06:00am 22.6 21.4 12.8 54 5.7 SSE 11 17 6 9 1012.0 1010.0 0.0
05/05:30am 22.2 20.6 12.7 55 5.5 SE 13 17 7 9 1011.6 1009.6 0.0
05/05:00am 22.7 21.0 12.3 52 6.0 SSE 13 17 7 9 1011.3 1009.3 0.0
05/04:30am 22.3 21.1 12.8 55 5.5 SSE 11 17 6 9 1011.3 1009.3 0.0
05/04:00am 22.4 21.7 13.2 56 5.4 SE 9 11 5 6 1011.2 1009.1 0.0
05/03:30am 21.9 22.0 14.5 63 4.4 SSE 7 15 4 8 1011.1 1009.0 0.0
05/03:00am 22.4 22.4 14.3 60 4.8 E 7 7 4 4 1011.1 1009.0 0.0
05/02:30am 23.2 23.0 13.7 55 5.6 SE 7 9 4 5 1010.7 1008.6 0.0
05/02:00am 24.1 23.5 13.6 52 6.2 SSE 9 13 5 7 1010.6 1008.5 0.0
05/01:30am 24.2 24.0 14.6 55 5.8 SSE 9 13 5 7 1010.7 1008.6 0.0
05/01:00am 24.6 24.3 15.5 57 5.6 SSE 11 13 6 7 1010.9 1008.8 0.0
05/12:30am 24.2 24.9 17.0 64 4.5 E 9 11 5 6 1011.1 1009.0 0.0
05/12:00am 25.4 26.4 16.8 59 5.4 SSE 7 9 4 5 1011.3 1009.3 0.0
 
Date/Time
EST
Temp
°C
App
Temp
°C
Dew
Point
°C
Rel
Hum
%
Delta-T
°C
Wind Press
QNH
hPa
Press
MSL
hPa
Rain since
9am
mm
Dir  Spd
km/h
Gust
km/h
Spd
kts
Gust
kts
04/11:30pm 26.1 27.3 16.9 57 5.8 SE 6 7 3 4 1011.3 1009.3 0.0
04/11:00pm 26.2 27.3 17.0 57 5.8 ESE 7 9 4 5 1011.7 1009.7 0.0
04/10:30pm 26.8 27.2 16.4 53 6.5 SE 9 11 5 6 1011.6 1009.6 0.0
04/10:00pm 27.3 27.9 16.9 53 6.6 ESE 9 13 5 7 1011.7 1009.7 0.0
04/09:30pm 28.4 29.2 16.3 47 7.6 SE 7 11 4 6 1011.3 1009.3 0.0
04/09:00pm 28.7 29.2 16.6 48 7.6 SE 9 13 5 7 1011.0 1008.9 0.0
04/08:30pm 28.4 29.3 17.6 52 6.9 ESE 9 11 5 6 1010.8 1008.7 0.0
04/08:00pm 29.6 30.7 17.1 47 8.0 SSE 7 9 4 5 1010.3 1008.3 0.0
04/07:30pm 30.5 31.4 16.1 41 9.1 SSE 6 7 3 4 1010.1 1008.1 0.0
04/07:00pm 31.5 31.4 15.0 36 10.3 SE 9 13 5 7 1009.8 1007.8 0.0
04/06:30pm 33.3 33.0 14.4 32 11.7 ESE 9 13 5 7 1009.5 1007.5 0.0
04/06:00pm 34.8 34.4 14.1 28 12.9 ESE 9 13 5 7 1009.2 1007.2 0.0
04/05:30pm 35.7 34.4 12.6 25 14.1 SSE 11 19 6 10 1008.9 1006.9 0.0
04/05:00pm 35.7 34.4 13.8 27 13.6 SSE 13 19 7 10 1008.9 1006.9 0.0
04/04:30pm 35.9 34.5 13.4 26 13.9 S 13 22 7 12 1009.1 1007.1 0.0
04/04:00pm 35.9 33.5 12.8 25 14.2 SSE 17 24 9 13 1009.5 1007.5 0.0
04/03:30pm 35.9 34.9 14.5 27 13.4 ESE 13 22 7 12 1009.6 1007.6 0.0
04/03:00pm 36.0 35.2 14.1 27 13.7 ENE 11 19 6 10 1010.0 1008.0 0.0
04/02:30pm 36.0 35.0 13.5 26 13.9 SE 11 20 6 11 1010.7 1008.6 0.0
04/02:00pm 35.6 34.7 14.8 28 13.1 ESE 13 19 7 10 1011.1 1009.0 0.0
04/01:30pm 35.2 34.2 14.5 29 12.9 SSE 13 20 7 11 1011.6 1009.6 0.0
04/01:00pm 35.1 34.4 14.4 29 12.9 SSE 11 19 6 10 1012.0 1010.0 0.0
04/12:30pm 34.9 34.4 13.7 28 13.1 SE 9 20 5 11 1012.5 1010.5 0.0
04/12:00pm 34.5 33.5 13.3 27 13.0 S 11 20 6 11 1012.9 1010.9 0.0
04/11:30am 34.2 33.8 12.5 27 13.1 SE 6 15 3 8 1013.2 1011.2 0.0
04/11:00am 33.7 34.1 13.7 30 12.3 ESE 4 13 2 7 1013.7 1011.7 0.0
04/10:30am 33.3 33.2 13.9 31 11.9 ESE 7 11 4 6 1014.0 1012.0 0.0
04/10:00am 32.8 32.9 14.4 33 11.4 SSE 7 13 4 7 1014.5 1012.4 0.0
04/09:30am 32.2 31.1 14.3 33 11.0 SSE 13 20 7 11 1014.9 1012.9 0.0

Other formats

Comma delimited format used in spreadsheet applications
http://www.bom.gov.au/fwo/IDQ60801/IDQ60801.95351.axf

JavaScript Object Notation format (JSON) in row-major order
http://www.bom.gov.au/fwo/IDQ60801/IDQ60801.95351.json

Data quality

Most of these data are generated automatically and are frequently updated. Quality checks on data are not normally performed. It is possible for incorrect values to appear. Refer to information at About Latest Weather Observations and please check the disclaimer before using these data.